^^
Station Historical Data
Daily Summary for April 8, 2017 Units:  English    Metric   Both
« Previous Day
Next Day »
Daily Weekly Monthly Yearly Custom
  High: Low: Average:
Temperature: 54.1 °F 38.2 °F 45 °F
Dew Point: 29.2 °F 23.6 °F 26.5 °F
Humidity: 69% 35% 49%
Wind Speed: 7.0mph 0.0mph 3.1mph
Wind Gust: 22.0mph - -
Wind- - SW
Pressure: 30.04 in 29.65 in -
Precipitation: 0.00 in    
Historical Graphs
 
 
Tabular Data for April 8, 2017
Time Temperature Dew Point Pressure Wind Wind Speed Wind Gust Humidity Rainfall Rate (Hourly) Conditions
00:00 38.5 °F 28.9 °F 29.65 in WSW 5.0 mph 15.0 mph 68% 0.00 in RA
00:15 38.5 °F 29.2 °F 29.66 in South 5.0 mph 14.0 mph 69% 0.00 in SCT
00:30 38.4 °F 29.1 °F 29.66 in SSW 2.0 mph 16.0 mph 69% 0.00 in SCT
00:45 38.5 °F 28.9 °F 29.67 in SSW 6.0 mph 14.0 mph 68% 0.00 in SCT
01:00 38.4 °F 29.1 °F 29.68 in WSW 5.0 mph 17.0 mph 69% 0.00 in SCT
02:15 38.3 °F 29.0 °F 29.69 in WNW 7.0 mph 15.0 mph 69% 0.00 in SCT
02:30 38.3 °F 29.0 °F 29.69 in West 3.0 mph 17.0 mph 69% 0.00 in SCT
02:45 38.2 °F 28.9 °F 29.69 in SSE 3.0 mph 16.0 mph 69% 0.00 in SCT
03:00 38.2 °F 28.6 °F 29.69 in SW 2.0 mph 14.0 mph 68% 0.00 in SCT
03:15 38.3 °F 28.7 °F 29.69 in WSW 5.0 mph 14.0 mph 68% 0.00 in OVC
03:30 38.3 °F 28.3 °F 29.70 in SSE 3.0 mph 12.0 mph 67% 0.00 in OVC
03:45 38.4 °F 28.0 °F 29.70 in SW 2.0 mph 12.0 mph 66% 0.00 in OVC
04:00 38.4 °F 27.3 °F 29.71 in WSW 2.0 mph 14.0 mph 64% 0.00 in OVC
04:15 38.5 °F 27.0 °F 29.71 in SW 1.0 mph 17.0 mph 63% 0.00 in OVC
04:30 38.5 °F 27.0 °F 29.71 in WSW 2.0 mph 13.0 mph 63% 0.00 in OVC
04:45 38.5 °F 26.6 °F 29.72 in NNE 3.0 mph 17.0 mph 62% 0.00 in OVC
05:00 38.6 °F 25.5 °F 29.72 in SW 3.0 mph 16.0 mph 59% 0.00 in OVC
05:15 38.5 °F 25.8 °F 29.73 in ESE 1.0 mph 14.0 mph 60% 0.00 in BKN
05:30 38.5 °F 25.8 °F 29.73 in West 6.0 mph 12.0 mph 60% 0.00 in BKN
05:45 38.4 °F 25.7 °F 29.73 in WSW 2.0 mph 12.0 mph 60% 0.00 in BKN
06:00 38.4 °F 25.7 °F 29.74 in West 5.0 mph 16.0 mph 60% 0.00 in BKN
06:30 38.3 °F 25.6 °F 29.75 in NW 2.0 mph 8.0 mph 60% 0.00 in BKN
06:45 38.3 °F 25.6 °F 29.76 in SW 1.0 mph 8.0 mph 60% 0.00 in BKN
07:00 38.3 °F 25.2 °F 29.76 in WSW 3.0 mph 12.0 mph 59% 0.00 in BKN
07:15 38.2 °F 24.7 °F 29.77 in WSW 2.0 mph 12.0 mph 58% 0.00 in BKN
07:30 38.3 °F 24.8 °F 29.78 in SSW 2.0 mph 10.0 mph 58% 0.00 in BKN
08:00 38.3 °F 24.8 °F 29.79 in SW 3.0 mph 10.0 mph 58% 0.00 in BKN
08:15 38.3 °F 24.8 °F 29.79 in SW 3.0 mph 13.0 mph 58% 0.00 in BKN
08:30 38.6 °F 25.5 °F 29.80 in SW 2.0 mph 16.0 mph 59% 0.00 in BKN
08:45 38.7 °F 25.2 °F 29.80 in SW 2.0 mph 18.0 mph 58% 0.00 in BKN
09:00 38.8 °F 25.7 °F 29.80 in NW 1.0 mph 9.0 mph 59% 0.00 in BKN
09:15 39.0 °F 25.9 °F 29.81 in SE 5.0 mph 12.0 mph 59% 0.00 in BKN
09:30 39.1 °F 25.6 °F 29.81 in WNW 3.0 mph 9.0 mph 58% 0.00 in BKN
09:45 39.1 °F 26.0 °F 29.82 in NW 1.0 mph 14.0 mph 59% 0.00 in BKN
10:00 39.1 °F 26.0 °F 29.82 in SW 1.0 mph 12.0 mph 59% 0.00 in BKN
10:15 41.9 °F 26.9 °F 29.82 in West 5.0 mph 12.0 mph 55% 0.00 in BKN
10:30 43.4 °F 27.4 °F 29.83 in NNW 5.0 mph 12.0 mph 53% 0.00 in BKN
10:45 44.4 °F 26.9 °F 29.83 in NW 7.0 mph 12.0 mph 50% 0.00 in BKN
11:00 44.9 °F 26.4 °F 29.83 in NNE 6.0 mph 12.0 mph 48% 0.00 in BKN
11:15 45.1 °F 27.1 °F 29.83 in NNW 3.0 mph 16.0 mph 49% 0.00 in SCT
11:30 45.0 °F 26.5 °F 29.83 in NNW 2.0 mph 12.0 mph 48% 0.00 in SCT
11:45 45.5 °F 26.4 °F 29.83 in North 5.0 mph 22.0 mph 47% 0.00 in SCT
12:00 46.1 °F 26.5 °F 29.83 in WNW 6.0 mph 13.0 mph 46% 0.00 in SCT
12:15 46.8 °F 28.1 °F 29.83 in West 3.0 mph 12.0 mph 48% 0.00 in FEW
12:30 47.2 °F 26.9 °F 29.83 in NW 6.0 mph 14.0 mph 45% 0.00 in FEW
12:45 47.4 °F 27.1 °F 29.83 in NW 5.0 mph 15.0 mph 45% 0.00 in FEW
13:00 48.8 °F 28.4 °F 29.83 in NW 2.0 mph 9.0 mph 45% 0.00 in FEW
13:15 49.6 °F 28.6 °F 29.83 in East 3.0 mph 12.0 mph 44% 0.00 in FEW
13:30 50.4 °F 28.7 °F 29.83 in WNW 2.0 mph 14.0 mph 43% 0.00 in FEW
13:45 50.6 °F 28.9 °F 29.83 in SW 3.0 mph 10.0 mph 43% 0.00 in FEW
14:00 50.5 °F 28.2 °F 29.83 in SW 3.0 mph 12.0 mph 42% 0.00 in FEW
14:15 50.8 °F 27.3 °F 29.83 in West 5.0 mph 12.0 mph 40% 0.00 in FEW
14:30 51.0 °F 27.5 °F 29.83 in NW 6.0 mph 15.0 mph 40% 0.00 in FEW
14:45 51.4 °F 27.8 °F 29.83 in NW 3.0 mph 13.0 mph 40% 0.00 in FEW
15:00 52.1 °F 27.9 °F 29.83 in WNW 3.0 mph 12.0 mph 39% 0.00 in FEW
15:15 52.2 °F 28.0 °F 29.83 in NNE 5.0 mph 13.0 mph 39% 0.00 in FEW
15:30 52.6 °F 27.0 °F 29.82 in North 7.0 mph 13.0 mph 37% 0.00 in FEW
15:45 52.8 °F 27.2 °F 29.82 in NW 3.0 mph 14.0 mph 37% 0.00 in FEW
16:00 53.2 °F 27.6 °F 29.83 in NW 3.0 mph 12.0 mph 37% 0.00 in FEW
16:15 53.5 °F 27.2 °F 29.83 in West 5.0 mph 12.0 mph 36% 0.00 in FEW
16:30 53.3 °F 27.7 °F 29.83 in WSW 5.0 mph 15.0 mph 37% 0.00 in FEW
16:45 53.1 °F 26.8 °F 29.83 in West 6.0 mph 20.0 mph 36% 0.00 in FEW
17:00 53.8 °F 27.4 °F 29.84 in WNW 6.0 mph 14.0 mph 36% 0.00 in FEW
17:15 53.9 °F 27.5 °F 29.84 in WNW 5.0 mph 12.0 mph 36% 0.00 in FEW
17:30 53.5 °F 26.5 °F 29.85 in WNW 5.0 mph 17.0 mph 35% 0.00 in FEW
17:45 54.1 °F 27.7 °F 29.85 in NNW 7.0 mph 13.0 mph 36% 0.00 in FEW
18:00 53.8 °F 27.4 °F 29.85 in North 3.0 mph 13.0 mph 36% 0.00 in FEW
18:15 53.3 °F 26.3 °F 29.86 in WNW 3.0 mph 13.0 mph 35% 0.00 in FEW
18:30 53.0 °F 26.1 °F 29.86 in NE 3.0 mph 13.0 mph 35% 0.00 in FEW
18:45 52.7 °F 26.5 °F 29.87 in North 3.0 mph 12.0 mph 36% 0.00 in FEW
19:00 51.9 °F 25.1 °F 29.88 in NNW 3.0 mph 15.0 mph 35% 0.00 in FEW
19:15 50.8 °F 25.4 °F 29.89 in North 2.0 mph 12.0 mph 37% 0.00 in CLR
19:30 50.2 °F 24.2 °F 29.90 in NE 1.0 mph 18.0 mph 36% 0.00 in CLR
19:45 49.6 °F 24.4 °F 29.91 in North 1.0 mph 12.0 mph 37% 0.00 in CLR
20:00 49.3 °F 24.1 °F 29.92 in NNW 2.0 mph 12.0 mph 37% 0.00 in CLR
20:15 48.7 °F 24.2 °F 29.93 in NE 1.0 mph 7.0 mph 38% 0.00 in CLR
20:30 48.3 °F 24.5 °F 29.94 in ESE 1.0 mph 7.0 mph 39% 0.00 in CLR
20:45 47.8 °F 24.7 °F 29.95 in Calm   4.0 mph 40% 0.00 in CLR
21:00 48.0 °F 23.6 °F 29.97 in NNW 1.0 mph 9.0 mph 38% 0.00 in CLR
21:15 47.7 °F 23.9 °F 29.97 in NE 1.0 mph 8.0 mph 39% 0.00 in CLR
21:30 47.3 °F 24.1 °F 29.98 in WNW 1.0 mph 7.0 mph 40% 0.00 in CLR
21:45 47.1 °F 24.0 °F 29.99 in NNE 1.0 mph 6.0 mph 40% 0.00 in CLR
22:00 46.8 °F 24.9 °F 29.99 in NNE 2.0 mph 9.0 mph 42% 0.00 in CLR
22:15 46.9 °F 23.8 °F 30.00 in NNE 1.0 mph 12.0 mph 40% 0.00 in CLR
22:30 46.5 °F 24.6 °F 30.01 in NE 1.0 mph 8.0 mph 42% 0.00 in CLR
22:45 46.2 °F 24.3 °F 30.01 in North 1.0 mph 7.0 mph 42% 0.00 in CLR
23:00 45.6 °F 25.0 °F 30.02 in North 1.0 mph 4.0 mph 44% 0.00 in CLR
23:15 45.2 °F 25.1 °F 30.02 in North 1.0 mph 4.0 mph 45% 0.00 in CLR
23:30 45.0 °F 24.9 °F 30.03 in NNE 1.0 mph 6.0 mph 45% 0.00 in CLR
23:45 44.7 °F 24.6 °F 30.04 in NNE 1.0 mph 5.0 mph 45% 0.00 in CLR
TarryTown NY Weather
Compliments of Weather Underground - 1.5 mb